Terminal Aerodrome Forecast
Issued by NWS

Home | Current Version | Previous Version | Text Only | Print | Product List | Glossary On
Versions: 1 2 3 4 5 6 7 8 9 10 11 12 13 14 15 16 17
000
FTUS41 KGYX 201455 AAA
TAFAUG
TAF AMD
KAUG 201455Z 2015/2112 20008G17KT P6SM SCT030 BKN040
     FM202100 20006KT P6SM BKN120
     FM210300 20004KT 2SM BR BKN002
     FM210600 19004KT 1/4SM FG VV001=

USA.gov is the U.S. government's official web portal to all federal, state and local government web resources and services.